Time;durP1;ratioP1;P1;durP2;ratioP2;P2;SDS_P1;SDS_P2;PMS_P1;PMS_P2;Temp;Humidity;BMP_temperature;BMP_pressure;BME280_temperature;BME280_humidity;BME280_pressure;Samples;Min_cycle;Max_cycle;Signal;HPM_P1;HPM_P2
2023/03/19 00:00:14;;;;;;;;;3.00;2.00;;;;;15.03;61.68;100485.91;5053103;28;45574;-75
2023/03/19 00:02:39;;;;;;;;;2.50;2.50;;;;;15.01;62.05;100489.66;5053010;28;47388;-74
2023/03/19 00:08:26;;;;;;;;;1.25;1.25;;;;;14.92;62.19;100487.84;5070765;27;45708;-74
2023/03/19 00:10:52;;;;;;;;;2.00;2.00;;;;;14.88;62.43;100492.59;5073509;28;45479;-74
2023/03/19 00:13:17;;;;;;;;;1.50;1.00;;;;;14.73;62.56;100488.72;5073112;28;46419;-75
2023/03/19 00:15:43;;;;;;;;;1.00;1.00;;;;;14.73;62.59;100496.63;5073526;28;45601;-75
2023/03/19 00:18:09;;;;;;;;;1.50;1.50;;;;;14.60;62.90;100475.78;5072983;28;45741;-75
2023/03/19 00:24:01;;;;;;;;;2.75;2.75;;;;;14.61;62.71;100495.09;5072941;28;45729;-74
2023/03/19 00:26:31;;;;;;;;;3.00;2.00;;;;;14.59;62.98;100502.28;5073115;28;46419;-74
2023/03/19 00:28:57;;;;;;;;;3.00;2.00;;;;;14.53;62.73;100498.38;5072601;28;45721;-77
2023/03/19 00:31:23;;;;;;;;;2.00;1.00;;;;;14.53;63.07;100501.03;5072813;28;45992;-76
2023/03/19 00:33:48;;;;;;;;;1.00;1.00;;;;;14.51;63.27;100502.16;5072868;28;45664;-74
2023/03/19 00:36:17;;;;;;;;;2.00;2.00;;;;;14.49;63.03;100498.81;5073168;28;45475;-75
2023/03/19 00:38:44;;;;;;;;;1.75;1.25;;;;;14.46;62.98;100494.66;5073009;28;46111;-74
2023/03/19 00:41:10;;;;;;;;;2.00;1.50;;;;;14.42;63.31;100505.59;5073038;28;45670;-74
2023/03/19 00:43:36;;;;;;;;;2.00;2.00;;;;;14.43;63.32;100513.38;5072724;28;46284;-77
2023/03/19 00:46:02;;;;;;;;;2.50;2.00;;;;;14.38;63.32;100512.94;5072754;28;46154;-75
2023/03/19 00:48:28;;;;;;;;;2.00;2.00;;;;;14.30;63.32;100503.03;5072964;28;45778;-74
2023/03/19 00:54:14;;;;;;;;;3.25;2.25;;;;;14.32;63.76;100513.44;5072786;28;45610;-74
2023/03/19 00:56:40;;;;;;;;;2.25;2.25;;;;;14.29;63.90;100514.56;5072748;28;46918;-75
2023/03/19 00:59:05;;;;;;;;;2.00;2.00;;;;;14.19;63.55;100499.69;5072263;28;45605;-76
2023/03/19 01:01:31;;;;;;;;;2.00;2.00;;;;;14.27;63.68;100519.13;5072719;28;45812;-74
2023/03/19 01:03:57;;;;;;;;;3.75;3.00;;;;;14.21;63.96;100518.81;5072877;28;46353;-76
2023/03/19 01:06:23;;;;;;;;;2.25;2.00;;;;;14.18;63.96;100522.59;5072694;28;45964;-75
2023/03/19 01:08:48;;;;;;;;;2.00;2.00;;;;;14.01;64.39;100512.66;5058015;28;46081;-74
2023/03/19 01:11:15;;;;;;;;;5.00;4.00;;;;;13.94;64.64;100515.97;5053552;28;45434;-74
2023/03/19 01:13:41;;;;;;;;;2.00;2.00;;;;;13.91;64.16;100517.06;5055917;28;46470;-74
2023/03/19 01:16:07;;;;;;;;;3.25;2.75;;;;;13.98;64.12;100534.00;5037694;28;45754;-74
2023/03/19 01:18:32;;;;;;;;;3.00;2.00;;;;;13.93;64.34;100530.13;5055050;28;45703;-74
2023/03/19 01:24:20;;;;;;;;;3.00;2.25;;;;;13.97;64.60;100531.50;5055439;28;45497;-75
2023/03/19 01:26:45;;;;;;;;;3.00;2.00;;;;;14.04;64.64;100535.25;5055458;28;46293;-76
2023/03/19 01:29:11;;;;;;;;;3.75;3.00;;;;;14.01;64.55;100530.28;5055205;28;45844;-74
2023/03/19 01:31:36;;;;;;;;;3.00;3.00;;;;;14.05;64.54;100532.50;5055641;28;45652;-74
2023/03/19 01:34:02;;;;;;;;;2.00;2.00;;;;;14.06;64.67;100539.44;5055487;28;46363;-73
2023/03/19 01:39:49;;;;;;;;;2.25;2.25;;;;;14.00;64.62;100520.69;5055299;28;45732;-75
2023/03/19 01:42:14;;;;;;;;;2.00;2.00;;;;;14.00;64.36;100525.97;5055753;28;45790;-75
2023/03/19 01:44:40;;;;;;;;;4.00;3.00;;;;;14.02;64.75;100532.78;5055014;28;46409;-74
2023/03/19 01:47:24;;;;;;;;;3.75;2.25;;;;;14.00;64.73;100534.72;5054936;28;46191;-74
2023/03/19 01:49:55;;;;;;;;;3.25;2.50;;;;;13.92;64.47;100531.91;5055165;28;45548;-75
2023/03/19 01:52:22;;;;;;;;;4.00;3.00;;;;;13.80;64.96;100518.00;5055753;28;45719;-74
2023/03/19 01:54:49;;;;;;;;;2.50;2.00;;;;;13.85;65.20;100525.50;5054864;28;46546;-75
2023/03/19 01:57:15;;;;;;;;;6.75;5.25;;;;;13.80;65.35;100531.16;5055125;28;45960;-75
2023/03/19 01:59:46;;;;;;;;;8.25;5.00;;;;;13.76;64.86;100528.94;5054928;28;45631;-75
2023/03/19 02:02:18;;;;;;;;;4.25;4.00;;;;;13.76;65.51;100532.41;5055359;28;45751;-75
2023/03/19 02:04:46;;;;;;;;;2.75;2.75;;;;;13.74;65.47;100528.22;5055192;28;45681;-74
2023/03/19 02:07:12;;;;;;;;;3.00;3.00;;;;;13.66;65.06;100513.06;5054655;28;46194;-74
2023/03/19 02:09:39;;;;;;;;;3.00;3.00;;;;;13.70;65.67;100516.28;5054495;28;45497;-75
2023/03/19 02:12:07;;;;;;;;;2.00;2.00;;;;;13.69;65.35;100519.88;5053777;28;46197;-74
2023/03/19 02:14:32;;;;;;;;;3.00;3.00;;;;;13.67;65.45;100513.91;5054224;28;46657;-74
2023/03/19 02:16:58;;;;;;;;;4.50;4.00;;;;;13.65;65.70;100505.31;5054825;28;45573;-75
2023/03/19 02:25:47;;;;;;;;;3.00;3.00;;;;;13.59;65.72;100504.03;5054371;28;45706;-74
2023/03/19 02:28:17;;;;;;;;;2.00;2.00;;;;;13.61;65.67;100504.72;5054256;28;46372;-74
2023/03/19 02:30:44;;;;;;;;;2.00;2.00;;;;;13.62;65.86;100493.22;5054509;28;45770;-74
2023/03/19 02:33:14;;;;;;;;;3.75;3.00;;;;;13.64;65.83;100508.91;5054646;28;45769;-73
2023/03/19 02:35:41;;;;;;;;;2.00;2.00;;;;;13.60;65.39;100508.34;5054110;28;46492;-74
2023/03/19 02:38:06;;;;;;;;;3.50;3.00;;;;;13.67;65.32;100511.25;5053933;28;46234;-76
2023/03/19 02:40:42;;;;;;;;;3.00;3.00;;;;;13.67;65.27;100512.09;5054383;28;45600;-75
2023/03/19 02:43:08;;;;;;;;;5.00;5.00;;;;;13.69;65.79;100522.50;5054256;28;45582;-75
2023/03/19 02:45:33;;;;;;;;;4.00;4.00;;;;;13.68;65.80;100531.38;5052997;28;46485;-75
2023/03/19 02:48:01;;;;;;;;;5.00;4.00;;;;;13.61;65.48;100527.56;5036189;28;48062;-75
2023/03/19 02:50:26;;;;;;;;;5.00;4.75;;;;;13.61;65.82;100522.31;5054256;28;45760;-75
2023/03/19 02:52:52;;;;;;;;;2.00;2.00;;;;;13.58;65.34;100509.44;5054732;28;45776;-75
2023/03/19 02:55:17;;;;;;;;;5.00;5.00;;;;;13.56;65.76;100503.44;5036116;28;47451;-73
2023/03/19 02:57:44;;;;;;;;;5.50;4.75;;;;;13.66;65.44;100525.38;5054211;28;47155;-74
2023/03/19 03:00:10;;;;;;;;;5.00;4.75;;;;;13.55;65.67;100518.41;5054089;28;45756;-75
2023/03/19 03:02:37;;;;;;;;;5.50;5.00;;;;;13.64;65.59;100535.22;5054479;28;45634;-74
2023/03/19 03:05:03;;;;;;;;;4.00;4.00;;;;;13.64;65.18;100528.16;5054409;28;46378;-75
2023/03/19 03:07:28;;;;;;;;;5.00;5.00;;;;;13.65;65.09;100529.84;5053684;28;46526;-74
2023/03/19 03:09:54;;;;;;;;;5.00;4.75;;;;;13.50;65.40;100506.59;5053681;28;45625;-76
2023/03/19 03:12:19;;;;;;;;;5.00;4.75;;;;;13.62;65.33;100526.63;5036030;28;45828;-75
2023/03/19 03:14:44;;;;;;;;;4.00;4.00;;;;;13.68;65.22;100534.00;5053790;28;47588;-75
2023/03/19 03:17:10;;;;;;;;;3.00;2.50;;;;;13.69;65.02;100535.69;5053806;28;46374;-75
2023/03/19 03:19:35;;;;;;;;;4.00;3.50;;;;;13.69;65.44;100544.41;5053628;28;45563;-75
2023/03/19 03:25:36;;;;;;;;;4.50;3.00;;;;;13.63;65.65;100537.03;5053573;28;45639;-75
2023/03/19 03:28:02;;;;;;;;;5.00;3.75;;;;;13.58;65.41;100528.69;5053503;28;45936;-75
2023/03/19 03:30:27;;;;;;;;;3.75;3.50;;;;;13.57;65.68;100537.53;5069363;28;45919;-74
2023/03/19 03:32:53;;;;;;;;;4.75;4.75;;;;;13.55;65.55;100542.09;5053981;28;45780;-73
2023/03/19 03:35:21;;;;;;;;;4.00;3.00;;;;;13.53;65.22;100537.94;5052700;28;46471;-75
2023/03/19 03:37:48;;;;;;;;;4.75;3.50;;;;;13.58;65.48;100546.28;5053222;28;46171;-74
2023/03/19 03:40:14;;;;;;;;;4.00;4.00;;;;;13.56;65.49;100540.31;5035912;28;45780;-73
2023/03/19 03:42:40;;;;;;;;;4.25;3.50;;;;;13.58;65.67;100535.75;5053908;28;45687;-73
2023/03/19 03:45:06;;;;;;;;;3.75;3.75;;;;;13.57;65.32;100542.81;5035279;28;47686;-74
2023/03/19 03:47:32;;;;;;;;;4.00;4.00;;;;;13.55;65.50;100543.91;5053190;28;45981;-75
2023/03/19 03:49:57;;;;;;;;;4.50;4.00;;;;;13.54;65.64;100548.34;5053219;28;45603;-74
2023/03/19 03:55:44;;;;;;;;;4.25;4.25;;;;;13.48;65.93;100537.50;5053141;28;45971;-75
2023/03/19 03:58:11;;;;;;;;;3.50;3.50;;;;;13.55;65.44;100546.56;5052944;28;45757;-75
2023/03/19 04:00:37;;;;;;;;;4.00;4.00;;;;;13.56;65.77;100551.66;5053140;28;45874;-75
2023/03/19 04:03:03;;;;;;;;;4.00;4.00;;;;;13.55;65.72;100546.56;5053434;28;45682;-75
2023/03/19 04:12:13;;;;;;;;;5.00;4.50;;;;;13.52;66.43;100563.44;5054164;28;45618;-76
2023/03/19 04:14:39;;;;;;;;;4.25;4.00;;;;;13.46;66.47;100558.66;5053148;28;45610;-74
2023/03/19 04:17:05;;;;;;;;;4.25;4.25;;;;;13.47;66.30;100559.50;5052767;28;45720;-75
2023/03/19 04:19:30;;;;;;;;;4.50;4.00;;;;;13.45;66.74;100555.19;5052586;28;46162;-76
2023/03/19 04:25:18;;;;;;;;;5.00;4.00;;;;;13.37;67.34;100551.56;5052815;28;45746;-76
2023/03/19 04:27:45;;;;;;;;;4.00;3.50;;;;;13.31;66.83;100547.63;5052496;28;45809;-75
2023/03/19 04:30:11;;;;;;;;;4.50;4.00;;;;;13.38;66.77;100555.84;5052238;28;46114;-75
2023/03/19 04:32:37;;;;;;;;;5.25;4.75;;;;;13.35;67.34;100548.19;5052693;28;45733;-75
2023/03/19 04:35:02;;;;;;;;;5.00;4.00;;;;;13.37;67.46;100557.66;5052946;28;45969;-74
2023/03/19 04:40:50;;;;;;;;;6.25;4.00;;;;;13.42;66.93;100563.38;5052205;28;45678;-75
2023/03/19 04:43:16;;;;;;;;;4.75;4.75;;;;;13.38;66.73;100563.75;5052520;28;45556;-74
2023/03/19 04:45:41;;;;;;;;;4.00;4.00;;;;;13.42;67.13;100562.53;5052361;28;45567;-74
2023/03/19 04:48:07;;;;;;;;;5.00;4.75;;;;;13.43;67.40;100570.31;5055562;28;46633;-75
2023/03/19 04:50:33;;;;;;;;;5.75;4.00;;;;;13.43;67.43;100561.56;5056095;28;46056;-74
2023/03/19 04:56:20;;;;;;;;;5.75;5.00;;;;;13.41;67.06;100552.97;5056269;28;45743;-73
2023/03/19 04:58:46;;;;;;;;;5.00;5.00;;;;;13.42;67.68;100559.91;5055514;28;47544;-76
2023/03/19 05:01:11;;;;;;;;;5.00;3.25;;;;;13.41;67.46;100569.59;5056005;28;45667;-76
2023/03/19 05:03:37;;;;;;;;;5.00;4.75;;;;;13.40;67.44;100575.81;5056231;28;45546;-76
2023/03/19 05:06:02;;;;;;;;;5.00;4.75;;;;;13.37;67.56;100570.81;5056328;28;45683;-75
2023/03/19 05:11:50;;;;;;;;;10.00;6.50;;;;;13.36;67.70;100571.78;5069954;28;46119;-75
2023/03/19 05:14:15;;;;;;;;;8.00;7.50;;;;;13.34;67.82;100575.47;5076367;28;45851;-73
2023/03/19 05:16:41;;;;;;;;;7.00;6.00;;;;;13.29;67.90;100581.13;5074976;28;45823;-75
2023/03/19 05:19:07;;;;;;;;;10.50;6.25;;;;;13.25;67.90;100579.72;5075604;28;46455;-75
2023/03/19 05:21:32;;;;;;;;;9.00;8.00;;;;;13.22;68.33;100594.94;5076475;28;46131;-75
2023/03/19 05:23:57;;;;;;;;;10.00;8.00;;;;;13.16;68.29;100598.91;5076183;28;45567;-74
2023/03/19 05:26:23;;;;;;;;;10.25;9.00;;;;;13.09;68.24;100589.78;5076290;28;45974;-75
2023/03/19 05:28:48;;;;;;;;;10.50;10.50;;;;;13.08;67.99;100598.66;5075630;28;46342;-75
2023/03/19 05:31:14;;;;;;;;;9.25;8.75;;;;;13.09;68.40;100600.31;5075592;28;46603;-74
2023/03/19 05:33:39;;;;;;;;;8.00;8.00;;;;;13.09;68.39;100605.56;5075502;28;45731;-75
2023/03/19 05:36:06;;;;;;;;;10.50;9.25;;;;;13.05;68.84;100606.78;5076088;28;45690;-74
2023/03/19 05:41:53;;;;;;;;;9.75;8.50;;;;;12.98;68.64;100597.72;5075777;28;46216;-75
2023/03/19 05:44:20;;;;;;;;;11.75;9.50;;;;;12.93;68.54;100605.16;5057473;28;45667;-74
2023/03/19 05:46:45;;;;;;;;;10.00;9.00;;;;;12.98;68.73;100618.75;5075504;28;45697;-72
2023/03/19 05:49:10;;;;;;;;;8.75;6.50;;;;;12.90;68.99;100616.75;5075346;28;47367;-75
2023/03/19 05:51:36;;;;;;;;;9.25;9.00;;;;;12.96;68.60;100620.66;5075160;28;46171;-73
2023/03/19 05:54:01;;;;;;;;;11.00;9.75;;;;;12.87;68.97;100616.16;5074509;28;45702;-75
2023/03/19 05:56:28;;;;;;;;;10.50;9.50;;;;;12.94;69.19;100631.34;5075518;27;45847;-74
2023/03/19 05:58:53;;;;;;;;;10.75;9.75;;;;;12.91;69.07;100633.34;5075427;28;45702;-74
2023/03/19 06:01:19;;;;;;;;;13.00;10.25;;;;;12.90;69.20;100626.44;5075547;28;45692;-75
2023/03/19 06:03:44;;;;;;;;;11.50;9.00;;;;;12.87;69.06;100624.06;5075345;28;45821;-73
2023/03/19 06:06:09;;;;;;;;;9.25;7.75;;;;;12.82;69.24;100621.78;5057339;28;45795;-76
2023/03/19 06:11:57;;;;;;;;;11.00;10.75;;;;;12.76;69.50;100643.31;5075083;27;45878;-74
2023/03/19 06:14:23;;;;;;;;;12.00;11.25;;;;;12.72;69.89;100647.16;5075722;28;45747;-74
2023/03/19 06:16:48;;;;;;;;;12.25;9.00;;;;;12.70;69.48;100645.59;5074759;28;45919;-75
2023/03/19 06:19:13;;;;;;;;;12.25;11.50;;;;;12.67;69.75;100640.59;5075003;28;47392;-75
2023/03/19 06:21:39;;;;;;;;;12.75;10.00;;;;;12.68;69.58;100642.25;5074781;28;46952;-75
2023/03/19 06:27:27;;;;;;;;;11.25;9.50;;;;;12.71;69.75;100655.16;5074790;28;45810;-74
2023/03/19 06:29:52;;;;;;;;;11.75;10.75;;;;;12.69;69.55;100657.06;5074685;28;47229;-75
2023/03/19 06:32:17;;;;;;;;;11.25;10.50;;;;;12.70;69.75;100661.34;5074599;28;47296;-75
2023/03/19 06:34:43;;;;;;;;;8.00;7.25;;;;;12.57;69.45;100649.22;5075065;28;45813;-74
2023/03/19 06:37:08;;;;;;;;;12.00;9.25;;;;;12.60;69.81;100671.75;5074682;28;45859;-74
2023/03/19 06:39:34;;;;;;;;;10.75;10.50;;;;;12.52;69.85;100668.91;5074605;28;45779;-74
2023/03/19 06:41:59;;;;;;;;;9.00;8.25;;;;;12.57;69.89;100672.88;5074515;28;46414;-74
2023/03/19 06:44:24;;;;;;;;;10.25;10.25;;;;;12.59;70.12;100675.34;5075008;28;45638;-76
2023/03/19 06:46:50;;;;;;;;;10.50;9.00;;;;;12.61;70.17;100679.53;5074799;28;45995;-76
2023/03/19 06:49:15;;;;;;;;;10.25;9.75;;;;;12.58;70.21;100673.66;5074808;28;46264;-74
2023/03/19 06:51:41;;;;;;;;;11.00;9.50;;;;;12.50;70.59;100686.59;5074597;28;46981;-73
2023/03/19 06:57:28;;;;;;;;;11.00;9.50;;;;;12.53;70.70;100688.97;5074272;28;45601;-75
2023/03/19 06:59:53;;;;;;;;;10.25;10.00;;;;;12.53;70.78;100687.16;5074415;28;45659;-74
2023/03/19 07:02:19;;;;;;;;;15.00;11.25;;;;;12.50;70.77;100690.06;5074439;28;47504;-74
2023/03/19 07:04:44;;;;;;;;;11.25;10.25;;;;;12.50;71.26;100682.16;5074689;28;45798;-74
2023/03/19 07:07:09;;;;;;;;;13.00;11.00;;;;;12.54;71.09;100680.97;5074345;28;45616;-76
2023/03/19 07:12:57;;;;;;;;;8.50;7.50;;;;;12.54;70.83;100686.22;5071984;27;46113;-75
2023/03/19 07:15:22;;;;;;;;;11.25;11.25;;;;;12.55;71.11;100684.44;5074320;28;45870;-74
2023/03/19 07:17:48;;;;;;;;;13.25;12.00;;;;;12.48;70.72;100680.59;5073903;28;45781;-75
2023/03/19 07:20:15;;;;;;;;;14.25;11.25;;;;;12.56;71.20;100688.75;5073765;28;47466;-74
2023/03/19 07:22:40;;;;;;;;;11.25;10.00;;;;;12.57;70.86;100699.16;5074010;28;45586;-74
2023/03/19 07:25:06;;;;;;;;;8.00;8.00;;;;;12.61;71.06;100694.47;5073974;28;45609;-75
2023/03/19 07:27:32;;;;;;;;;11.00;9.00;;;;;12.58;70.46;100690.28;5074192;28;45711;-74
2023/03/19 07:29:57;;;;;;;;;12.50;9.75;;;;;12.60;70.75;100693.63;5074387;28;46935;-76
2023/03/19 07:32:23;;;;;;;;;13.00;12.75;;;;;12.63;70.75;100693.38;5072728;28;47451;-74
2023/03/19 07:34:49;;;;;;;;;8.00;7.50;;;;;12.63;70.30;100701.25;5073834;28;45681;-76
2023/03/19 07:37:15;;;;;;;;;7.25;7.00;;;;;12.57;70.35;100693.88;5073865;28;45560;-75
2023/03/19 07:43:03;;;;;;;;;11.50;8.25;;;;;12.53;69.97;100699.47;5073820;28;45769;-75
2023/03/19 07:45:28;;;;;;;;;10.00;8.00;;;;;12.43;70.08;100680.97;5056026;28;45771;-75
2023/03/19 07:47:54;;;;;;;;;8.25;7.25;;;;;12.48;70.39;100696.38;5073891;28;45660;-74
2023/03/19 07:50:19;;;;;;;;;9.50;8.75;;;;;12.48;70.39;100701.63;5073772;28;46299;-74
2023/03/19 07:52:46;;;;;;;;;7.25;6.50;;;;;12.46;69.99;100691.25;5073717;28;45800;-72
2023/03/19 07:55:12;;;;;;;;;7.75;7.50;;;;;12.47;70.22;100698.16;5073443;28;45709;-76
2023/03/19 07:57:38;;;;;;;;;7.50;7.25;;;;;12.47;70.27;100698.16;5073517;28;45575;-75
2023/03/19 08:00:04;;;;;;;;;10.00;9.50;;;;;12.49;70.15;100695.41;5073570;28;45600;-74
2023/03/19 08:02:30;;;;;;;;;10.50;8.50;;;;;12.47;70.42;100695.53;5072418;28;46903;-74
2023/03/19 08:04:55;;;;;;;;;8.00;7.00;;;;;12.51;70.17;100704.03;5073949;28;45616;-73
2023/03/19 08:07:21;;;;;;;;;9.00;8.25;;;;;12.51;70.26;100702.25;5073115;28;45744;-74
2023/03/19 08:13:08;;;;;;;;;8.00;8.00;;;;;12.53;69.82;100705.56;5061867;28;45782;-73
2023/03/19 08:15:34;;;;;;;;;9.75;7.25;;;;;12.49;69.86;100698.88;5053360;28;46245;-74
2023/03/19 08:18:02;;;;;;;;;8.75;7.75;;;;;12.50;69.87;100697.09;5053026;28;45591;-74
2023/03/19 08:20:27;;;;;;;;;7.00;6.50;;;;;12.59;69.34;100710.34;5052509;28;47441;-75
2023/03/19 08:22:53;;;;;;;;;7.50;7.00;;;;;12.61;69.39;100720.75;5052856;28;47037;-75
2023/03/19 08:28:40;;;;;;;;;6.50;6.25;;;;;12.67;69.10;100703.66;5052618;28;45861;-74
2023/03/19 08:31:10;;;;;;;;;5.00;5.00;;;;;12.77;69.30;100718.59;5052300;28;46799;-73
2023/03/19 08:33:36;;;;;;;;;6.75;5.25;;;;;12.82;68.54;100712.97;5052564;28;46549;-75
2023/03/19 08:36:10;;;;;;;;;4.25;3.00;;;;;12.91;68.27;100715.72;5052658;28;45824;-75
2023/03/19 08:38:36;;;;;;;;;4.25;3.75;;;;;12.96;68.15;100720.59;5052218;28;45920;-75
2023/03/19 08:41:03;;;;;;;;;5.00;4.75;;;;;12.98;68.25;100718.69;5052694;28;45678;-74
2023/03/19 08:43:30;;;;;;;;;5.00;5.00;;;;;13.02;67.99;100730.66;5052645;28;46265;-76
2023/03/19 08:45:56;;;;;;;;;8.50;6.00;;;;;12.99;67.89;100746.69;5052579;28;45703;-75
2023/03/19 08:48:21;;;;;;;;;8.00;3.75;;;;;12.95;67.95;100751.34;5052273;28;45885;-76
2023/03/19 08:50:55;;;;;;;;;6.00;4.50;;;;;12.92;67.74;100761.25;5052267;28;45643;-76
2023/03/19 08:53:22;;;;;;;;;4.00;3.00;;;;;12.83;67.56;100768.09;5052552;28;46349;-76
2023/03/19 08:55:52;;;;;;;;;4.00;4.00;;;;;12.70;67.48;100772.59;5051707;28;45791;-75
2023/03/19 08:58:19;;;;;;;;;4.75;3.75;;;;;12.64;67.70;100773.06;5052068;28;45878;-75
2023/03/19 09:00:45;;;;;;;;;4.50;4.50;;;;;12.50;67.28;100774.16;5052409;28;46229;-75
2023/03/19 09:03:11;;;;;;;;;7.25;4.00;;;;;12.40;67.92;100765.28;5052582;28;46176;-75
2023/03/19 09:05:36;;;;;;;;;7.50;5.00;;;;;12.45;67.67;100781.53;5052441;28;45731;-76
2023/03/19 09:08:02;;;;;;;;;7.25;5.75;;;;;12.42;67.77;100800.16;5050431;28;45866;-75
2023/03/19 09:13:49;;;;;;;;;7.75;3.00;;;;;12.27;68.10;100810.97;5055752;28;46103;-75
2023/03/19 09:16:15;;;;;;;;;7.00;4.00;;;;;12.12;68.04;100807.72;5051869;28;45766;-73
2023/03/19 09:18:41;;;;;;;;;4.00;4.00;;;;;12.02;68.28;100804.09;5052004;28;45617;-75
2023/03/19 09:21:06;;;;;;;;;3.00;3.00;;;;;12.07;68.33;100808.06;5051194;28;46609;-73
2023/03/19 09:23:32;;;;;;;;;4.50;3.25;;;;;12.02;68.54;100812.81;5051854;28;45535;-76
2023/03/19 09:25:57;;;;;;;;;5.00;3.50;;;;;12.03;68.80;100801.38;5051434;28;45556;-74
2023/03/19 09:28:22;;;;;;;;;4.00;3.00;;;;;12.06;68.57;100788.00;5051383;28;45794;-73
2023/03/19 09:30:50;;;;;;;;;4.75;2.75;;;;;12.10;68.61;100805.19;5051338;28;46589;-74
2023/03/19 09:33:17;;;;;;;;;4.00;2.75;;;;;12.11;68.66;100804.25;5036138;28;47622;-74
2023/03/19 09:35:43;;;;;;;;;2.75;2.75;;;;;12.12;68.52;100805.94;5055324;28;45902;-75
2023/03/19 09:38:11;;;;;;;;;3.50;3.25;;;;;12.15;68.58;100804.84;5053627;28;45906;-74
2023/03/19 09:44:15;;;;;;;;;4.50;3.00;;;;;12.24;68.64;100801.56;5055253;28;45657;-76
2023/03/19 09:46:54;;;;;;;;;3.75;3.00;;;;;12.38;68.66;100811.00;5054997;28;45711;-76
2023/03/19 09:49:27;;;;;;;;;6.25;4.00;;;;;12.41;68.42;100818.69;5055222;28;45719;-75
2023/03/19 09:51:55;;;;;;;;;4.00;3.00;;;;;12.46;68.09;100812.13;5055327;28;46620;-74
2023/03/19 09:54:43;;;;;;;;;3.75;3.00;;;;;12.55;68.02;100823.72;5054930;28;45917;-76
2023/03/19 09:57:10;;;;;;;;;3.25;3.00;;;;;12.52;67.58;100827.41;5054472;28;45713;-74
2023/03/19 09:59:36;;;;;;;;;3.75;3.00;;;;;12.48;67.77;100831.22;5054887;28;45783;-74
2023/03/19 10:02:20;;;;;;;;;4.00;2.00;;;;;12.47;67.91;100829.56;5055005;28;47409;-75
2023/03/19 10:04:51;;;;;;;;;2.00;1.75;;;;;12.46;67.86;100829.69;5054526;28;47265;-74
2023/03/19 10:07:42;;;;;;;;;4.00;2.75;;;;;12.44;68.33;100840.31;5054392;28;45863;-77
2023/03/19 10:10:24;;;;;;;;;2.50;2.00;;;;;12.44;69.05;100839.47;4992699;28;45656;-76
2023/03/19 10:12:52;;;;;;;;;2.25;1.00;;;;;12.47;68.93;100847.94;4992563;28;45845;-77
2023/03/19 10:15:27;;;;;;;;;1.00;1.00;;;;;12.51;68.93;100843.31;4992586;28;47086;-75
2023/03/19 10:18:05;;;;;;;;;1.00;1.00;;;;;12.53;69.28;100854.53;4992277;28;45938;-74
2023/03/19 10:20:46;;;;;;;;;1.25;1.00;;;;;12.54;71.46;100851.78;4992563;28;45922;-74
2023/03/19 10:23:32;;;;;;;;;3.50;3.00;;;;;12.47;73.42;100861.09;4992525;28;45797;-76
2023/03/19 10:26:01;;;;;;;;;2.25;2.00;;;;;12.28;72.78;100881.81;4992218;28;46277;-75
2023/03/19 10:28:28;;;;;;;;;3.75;2.00;;;;;12.02;74.90;100864.50;4992511;28;46062;-75
2023/03/19 10:31:02;;;;;;;;;4.00;2.25;;;;;11.85;75.27;100872.75;4992324;28;45965;-75
2023/03/19 10:33:43;;;;;;;;;4.00;4.00;;;;;11.71;77.16;100866.66;4992809;28;46916;-73
2023/03/19 10:36:09;;;;;;;;;5.50;4.50;;;;;11.63;76.73;100886.53;4992527;28;46106;-75
2023/03/19 10:38:40;;;;;;;;;5.50;5.50;;;;;11.53;76.32;100872.41;4992399;28;45820;-74
2023/03/19 10:41:37;;;;;;;;;8.00;6.00;;;;;11.39;77.70;100862.88;4992234;28;46024;-76
2023/03/19 10:44:09;;;;;;;;;5.75;5.50;;;;;11.40;77.71;100879.44;4992429;28;45713;-73
2023/03/19 10:46:39;;;;;;;;;9.25;9.00;;;;;11.33;78.38;100866.78;5007911;28;46340;-75
2023/03/19 10:49:10;;;;;;;;;9.00;7.75;;;;;11.38;77.80;100870.88;5054445;28;45752;-75
2023/03/19 10:51:37;;;;;;;;;7.75;7.50;;;;;11.38;78.20;100890.06;5054409;28;45618;-73
2023/03/19 10:54:21;;;;;;;;;9.00;9.00;;;;;11.37;78.89;100875.25;5054106;28;45669;-75
2023/03/19 10:56:47;;;;;;;;;7.25;7.25;;;;;11.43;78.86;100874.00;5053779;28;45877;-75
2023/03/19 10:59:29;;;;;;;;;11.75;7.50;;;;;11.47;78.24;100883.31;5054136;28;45761;-76
2023/03/19 11:01:58;;;;;;;;;10.75;10.25;;;;;11.49;78.40;100876.19;5054123;28;45810;-76
2023/03/19 11:04:25;;;;;;;;;14.00;11.75;;;;;11.49;77.91;100861.28;5054264;28;45804;-75
2023/03/19 11:07:19;;;;;;;;;12.75;10.50;;;;;11.54;77.38;100880.16;5053668;28;46111;-75
2023/03/19 11:13:19;;;;;;;;;6.00;4.00;;;;;11.45;75.93;100893.91;5058488;28;45928;-75
2023/03/19 11:15:47;;;;;;;;;2.75;2.00;;;;;11.39;76.25;100915.31;5072418;28;46490;-73
2023/03/19 11:18:21;;;;;;;;;0.75;0.75;;;;;11.41;74.27;100912.59;5072394;28;48719;-75
2023/03/19 11:20:58;;;;;;;;;2.00;1.75;;;;;11.34;74.43;100909.56;5073912;28;45608;-76
2023/03/19 11:23:28;;;;;;;;;2.00;1.25;;;;;11.29;74.08;100916.91;5074074;28;45820;-75
2023/03/19 11:29:17;;;;;;;;;1.00;1.00;;;;;11.21;73.80;100906.97;5073598;28;46047;-75
2023/03/19 11:31:51;;;;;;;;;1.00;1.00;;;;;11.17;72.56;100902.88;5073990;28;45666;-75
2023/03/19 11:34:44;;;;;;;;;1.00;1.00;;;;;11.17;71.96;100896.81;5074044;28;45777;-75
2023/03/19 11:37:12;;;;;;;;;1.00;1.00;;;;;11.21;72.60;100908.75;5073740;28;46421;-74
2023/03/19 11:39:47;;;;;;;;;2.00;1.00;;;;;11.27;72.78;100892.59;5074026;28;46234;-74
2023/03/19 11:45:49;;;;;;;;;2.00;1.00;;;;;11.42;72.14;100898.56;5073925;28;45712;-75
2023/03/19 11:48:49;;;;;;;;;1.00;0.75;;;;;11.46;71.41;100898.22;5073586;28;46616;-75
2023/03/19 11:51:25;;;;;;;;;2.50;2.25;;;;;11.54;71.28;100914.28;5073854;28;45943;-75
2023/03/19 11:54:19;;;;;;;;;2.00;1.00;;;;;11.61;70.83;100909.41;5073874;28;45640;-75
2023/03/19 11:56:49;;;;;;;;;4.50;3.00;;;;;11.67;70.45;100903.75;4990644;28;45845;-75
2023/03/19 11:59:42;;;;;;;;;2.00;2.00;;;;;11.74;70.85;100912.91;4990971;28;45605;-74
2023/03/19 12:02:26;;;;;;;;;2.00;2.00;;;;;11.78;70.31;100920.44;4913201;28;46256;-75
2023/03/19 12:05:13;;;;;;;;;2.00;0.50;;;;;11.79;69.89;100926.53;4913718;28;46130;-74
2023/03/19 12:07:44;;;;;;;;;1.00;1.00;;;;;11.78;69.76;100923.06;4913295;28;45707;-75
2023/03/19 12:13:52;;;;;;;;;2.00;2.00;;;;;11.83;70.35;100914.03;4913105;28;46069;-72
2023/03/19 12:16:37;;;;;;;;;2.00;2.00;;;;;11.90;69.26;100910.00;4913024;28;45762;-75
2023/03/19 12:19:19;;;;;;;;;1.25;1.00;;;;;11.96;68.49;100910.41;4913173;28;45877;-75
2023/03/19 12:22:01;;;;;;;;;1.00;0.25;;;;;12.04;67.37;100913.31;4913495;28;45915;-74
2023/03/19 12:24:56;;;;;;;;;1.50;1.50;;;;;12.11;67.11;100922.44;4913709;28;46133;-74
2023/03/19 12:27:48;;;;;;;;;1.00;1.00;;;;;12.20;66.72;100921.75;4912908;28;46108;-74
2023/03/19 12:30:43;;;;;;;;;1.50;1.50;;;;;12.28;66.45;100910.72;4913126;28;45679;-75
2023/03/19 12:33:23;;;;;;;;;2.25;1.00;;;;;12.36;66.91;100916.22;4915517;28;48289;-75
2023/03/19 12:35:54;;;;;;;;;2.00;2.00;;;;;12.42;66.39;100904.41;4974101;28;48025;-74
2023/03/19 12:38:33;;;;;;;;;4.00;3.75;;;;;12.51;65.78;100920.38;5001812;28;45722;-76
2023/03/19 12:44:37;;;;;;;;;4.50;3.00;;;;;12.64;64.45;100917.66;5072798;28;45536;-75
2023/03/19 12:47:39;;;;;;;;;3.00;3.00;;;;;12.73;64.02;100914.34;5054433;28;48251;-74
2023/03/19 12:50:10;;;;;;;;;2.00;1.00;;;;;12.78;64.25;100919.25;4990246;28;45795;-74
2023/03/19 12:52:41;;;;;;;;;1.00;1.00;;;;;12.86;62.62;100920.34;4990866;28;45727;-75
2023/03/19 12:55:35;;;;;;;;;1.75;1.75;;;;;12.83;62.04;100914.50;4990502;28;46773;-75
2023/03/19 13:01:29;;;;;;;;;1.75;1.75;;;;;12.86;63.15;100932.66;4990313;28;45817;-76
2023/03/19 13:04:09;;;;;;;;;2.00;1.00;;;;;12.84;62.82;100919.63;4990692;28;45615;-76
2023/03/19 13:06:37;;;;;;;;;1.25;1.25;;;;;12.88;61.79;100936.84;4973516;28;47161;-74
2023/03/19 13:09:24;;;;;;;;;2.00;2.00;;;;;12.89;61.27;100930.66;4993714;28;46425;-75
2023/03/19 13:12:17;;;;;;;;;2.00;2.00;;;;;12.81;61.78;100921.63;4993565;28;46040;-76
2023/03/19 13:14:58;;;;;;;;;2.50;2.00;;;;;12.90;61.09;100931.50;4993619;28;45749;-75
2023/03/19 13:17:43;;;;;;;;;4.00;2.25;;;;;12.91;61.37;100939.25;4993304;28;45786;-74